createdAt,value
2018-03-30T00:01:25.209Z,67.90
2018-03-30T00:03:51.636Z,67.50
2018-03-30T00:06:18.063Z,66.80
2018-03-30T00:08:44.577Z,66.60
2018-03-30T00:11:11.041Z,66.60
2018-03-30T00:13:37.435Z,66.50
2018-03-30T00:16:03.887Z,67.00
2018-03-30T00:18:31.055Z,66.70
2018-03-30T00:20:58.314Z,66.70
2018-03-30T00:23:24.747Z,67.60
2018-03-30T00:25:51.174Z,67.30
2018-03-30T00:28:17.593Z,68.50
2018-03-30T00:30:44.001Z,69.30
2018-03-30T00:33:10.454Z,69.20
2018-03-30T00:35:37.647Z,69.30
2018-03-30T00:38:04.151Z,69.20
2018-03-30T00:40:30.561Z,69.20
2018-03-30T00:42:57.697Z,68.90
2018-03-30T00:45:24.141Z,68.90
2018-03-30T00:47:50.646Z,68.30
2018-03-30T00:50:17.793Z,69.20
2018-03-30T00:52:44.217Z,69.20
2018-03-30T00:55:11.376Z,69.60
2018-03-30T00:57:37.838Z,70.80
2018-03-30T01:00:05.010Z,71.70
2018-03-30T01:02:31.473Z,71.70
2018-03-30T01:04:57.849Z,71.70
2018-03-30T01:07:25.016Z,72.30
2018-03-30T01:09:51.437Z,72.40
2018-03-30T01:12:18.583Z,72.60
2018-03-30T01:14:45.028Z,72.70
2018-03-30T01:17:11.421Z,72.90
2018-03-30T01:19:37.891Z,72.70
2018-03-30T01:22:04.334Z,72.60
2018-03-30T01:24:30.732Z,72.70
2018-03-30T01:26:57.143Z,73.00
2018-03-30T01:29:23.673Z,73.40
2018-03-30T01:31:50.165Z,73.20
2018-03-30T01:34:16.618Z,72.60
2018-03-30T01:36:43.121Z,72.30
2018-03-30T01:39:09.537Z,72.20
2018-03-30T01:41:36.005Z,72.10
2018-03-30T01:44:02.405Z,72.10
2018-03-30T01:46:28.946Z,72.40
2018-03-30T01:48:55.330Z,72.80
2018-03-30T01:51:21.818Z,73.60
2018-03-30T01:53:48.234Z,73.40
2018-03-30T01:56:14.647Z,72.90
2018-03-30T01:58:41.096Z,72.60
2018-03-30T02:01:07.466Z,72.70
2018-03-30T02:03:33.884Z,73.30
2018-03-30T02:06:00.294Z,73.20
2018-03-30T02:08:26.729Z,73.50
2018-03-30T02:10:53.154Z,74.10
2018-03-30T02:13:19.564Z,73.80
2018-03-30T02:15:46.710Z,74.20
2018-03-30T02:18:13.153Z,74.10
2018-03-30T02:20:40.277Z,74.20
2018-03-30T02:23:06.653Z,74.20
2018-03-30T02:25:33.039Z,74.30
2018-03-30T02:27:59.418Z,75.20
2018-03-30T02:30:25.826Z,74.10
2018-03-30T02:32:52.962Z,74.30
2018-03-30T02:35:20.095Z,75.20
2018-03-30T02:37:46.470Z,75.10
2018-03-30T02:40:12.833Z,75.30
2018-03-30T02:42:39.349Z,75.30
2018-03-30T02:45:05.739Z,74.90
2018-03-30T02:47:32.867Z,74.70
2018-03-30T02:49:59.251Z,74.70
2018-03-30T02:52:25.682Z,74.60
2018-03-30T02:54:52.074Z,74.50
2018-03-30T02:57:19.224Z,75.00
2018-03-30T02:59:46.347Z,76.50
2018-03-30T03:02:12.855Z,75.80
2018-03-30T03:04:39.262Z,76.20
2018-03-30T03:07:05.669Z,76.80
2018-03-30T03:09:32.114Z,77.10
2018-03-30T03:11:58.483Z,77.50
2018-03-30T03:14:24.905Z,77.50
2018-03-30T03:16:51.289Z,77.10
2018-03-30T03:19:17.724Z,76.50
2018-03-30T03:21:44.114Z,77.40
2018-03-30T03:24:10.514Z,77.40
2018-03-30T03:26:36.901Z,77.20
2018-03-30T03:29:03.286Z,77.30
2018-03-30T03:31:29.689Z,77.40
2018-03-30T03:33:56.122Z,77.80
2018-03-30T03:36:23.358Z,78.70
2018-03-30T03:38:50.568Z,77.70
2018-03-30T03:41:16.969Z,77.70
2018-03-30T03:43:43.336Z,77.20
2018-03-30T03:46:09.741Z,77.30
2018-03-30T03:48:36.135Z,77.70
2018-03-30T03:51:03.254Z,78.30
2018-03-30T03:53:29.648Z,78.30
2018-03-30T03:55:56.025Z,78.90
2018-03-30T03:58:22.456Z,78.70
2018-03-30T04:00:48.920Z,78.80
2018-03-30T04:03:15.297Z,78.80
2018-03-30T04:05:41.690Z,79.20
2018-03-30T04:08:08.108Z,79.50
2018-03-30T04:10:35.227Z,79.80
2018-03-30T04:13:01.626Z,79.80
2018-03-30T04:15:28.059Z,80.10
2018-03-30T04:17:54.454Z,80.70
2018-03-30T04:20:20.837Z,80.30
2018-03-30T04:22:47.288Z,80.60
2018-03-30T04:25:13.669Z,80.30
2018-03-30T04:27:40.072Z,79.80
2018-03-30T04:30:07.182Z,80.00
2018-03-30T04:32:33.613Z,79.90
2018-03-30T04:35:00.014Z,79.40
2018-03-30T04:37:26.369Z,79.30
2018-03-30T04:39:52.762Z,79.60
2018-03-30T04:42:19.143Z,79.00
2018-03-30T04:44:45.596Z,79.50
2018-03-30T04:47:11.963Z,80.20
2018-03-30T04:49:38.377Z,80.70
2018-03-30T04:52:05.498Z,81.00
2018-03-30T04:54:32.662Z,80.70
2018-03-30T04:56:59.792Z,80.70
2018-03-30T04:59:26.225Z,80.70
2018-03-30T05:01:52.703Z,81.00
2018-03-30T05:04:19.158Z,81.00
2018-03-30T05:06:45.569Z,80.20
2018-03-30T05:09:11.922Z,79.80
2018-03-30T05:11:38.346Z,80.30
2018-03-30T05:14:04.753Z,80.00
2018-03-30T05:16:31.234Z,79.90
2018-03-30T05:18:58.472Z,79.30
2018-03-30T05:21:24.991Z,78.90
2018-03-30T05:23:51.559Z,78.60
2018-03-30T05:26:18.055Z,79.10
2018-03-30T05:28:44.472Z,79.20
2018-03-30T05:31:10.930Z,79.50
2018-03-30T05:33:37.474Z,79.30
2018-03-30T05:36:03.882Z,78.60
2018-03-30T05:38:30.307Z,78.50
2018-03-30T05:40:56.737Z,79.60
2018-03-30T05:43:23.181Z,80.50
2018-03-30T05:45:49.648Z,80.50
2018-03-30T05:48:16.077Z,79.50
2018-03-30T05:50:42.492Z,78.60
2018-03-30T05:53:08.889Z,78.50
2018-03-30T05:55:35.298Z,78.70
2018-03-30T05:58:03.478Z,78.40
2018-03-30T06:00:29.902Z,78.40
2018-03-30T06:02:57.003Z,77.50
2018-03-30T06:05:23.402Z,77.30
2018-03-30T06:07:49.778Z,77.00
2018-03-30T06:10:16.228Z,77.10
2018-03-30T06:12:42.654Z,76.40
2018-03-30T06:15:09.129Z,75.60
2018-03-30T06:17:35.575Z,75.60
2018-03-30T06:20:02.111Z,76.00
2018-03-30T06:22:28.544Z,76.00
2018-03-30T06:24:55.050Z,75.40
2018-03-30T06:27:21.420Z,75.20
2018-03-30T06:29:47.895Z,75.70
2018-03-30T06:32:14.407Z,75.70
2018-03-30T06:34:40.816Z,76.00
2018-03-30T06:37:07.235Z,75.40
2018-03-30T06:39:33.656Z,75.60
2018-03-30T06:42:00.090Z,76.00
2018-03-30T06:44:26.528Z,75.90
2018-03-30T06:46:52.920Z,75.40
2018-03-30T06:49:20.083Z,74.70
2018-03-30T06:51:46.520Z,74.70
2018-03-30T06:54:12.960Z,75.00
2018-03-30T06:56:39.421Z,74.80
2018-03-30T06:59:05.854Z,75.10
2018-03-30T07:01:32.405Z,74.60
2018-03-30T07:03:58.866Z,74.00
2018-03-30T07:06:25.274Z,73.10
2018-03-30T07:08:51.733Z,72.30
2018-03-30T07:11:18.150Z,72.50
2018-03-30T07:13:44.624Z,73.20
2018-03-30T07:16:11.928Z,73.70
2018-03-30T07:18:39.190Z,72.70
2018-03-30T07:21:05.621Z,72.70
2018-03-30T07:23:32.044Z,71.40
2018-03-30T07:25:58.495Z,70.40
2018-03-30T07:28:25.020Z,70.30
2018-03-30T07:30:51.501Z,69.30
2018-03-30T07:33:17.919Z,69.30
2018-03-30T07:35:44.354Z,69.00
2018-03-30T07:38:10.806Z,68.70
2018-03-30T07:40:37.257Z,68.70
2018-03-30T07:43:03.720Z,67.50
2018-03-30T07:45:30.162Z,66.20
2018-03-30T07:47:56.576Z,66.30
2018-03-30T07:50:23.737Z,65.20
2018-03-30T07:52:50.170Z,65.20
2018-03-30T07:55:16.597Z,65.50
2018-03-30T07:57:42.984Z,65.90
2018-03-30T08:00:09.386Z,65.50
2018-03-30T08:02:35.807Z,64.10
2018-03-30T08:05:03.156Z,64.90
2018-03-30T08:07:29.647Z,64.80
2018-03-30T08:09:56.242Z,64.50
2018-03-30T08:12:22.772Z,64.90
2018-03-30T08:14:49.223Z,62.20
2018-03-30T08:17:15.654Z,62.30
2018-03-30T08:19:42.088Z,62.30
2018-03-30T08:22:08.561Z,61.10
2018-03-30T08:24:35.784Z,60.00
2018-03-30T08:27:02.297Z,60.00
2018-03-30T08:29:28.721Z,59.70
2018-03-30T08:31:55.155Z,57.10
2018-03-30T08:34:21.630Z,57.80
2018-03-30T08:36:48.072Z,57.70
2018-03-30T08:39:14.628Z,57.20
2018-03-30T08:41:41.069Z,56.40
2018-03-30T08:44:07.485Z,56.00
2018-03-30T08:46:34.001Z,56.10
2018-03-30T08:49:01.215Z,54.70
2018-03-30T08:51:27.611Z,54.70
2018-03-30T08:53:54.165Z,54.80
2018-03-30T08:56:20.656Z,54.80
2018-03-30T08:58:47.049Z,54.30
2018-03-30T09:01:13.477Z,52.60
2018-03-30T09:03:39.941Z,52.20
2018-03-30T09:06:06.406Z,51.20
2018-03-30T09:08:32.819Z,51.70
2018-03-30T09:11:00.298Z,50.10
2018-03-30T09:13:26.690Z,50.10
2018-03-30T09:15:53.936Z,50.70
2018-03-30T09:18:21.142Z,51.10
2018-03-30T09:20:47.619Z,50.40
2018-03-30T09:23:14.834Z,49.70
2018-03-30T09:25:41.530Z,49.80
2018-03-30T09:28:08.191Z,50.10
2018-03-30T09:30:34.755Z,49.10
2018-03-30T09:33:01.222Z,48.70
2018-03-30T09:35:27.710Z,48.40
2018-03-30T09:37:54.346Z,49.10
2018-03-30T09:40:20.826Z,48.90
2018-03-30T09:42:48.002Z,48.70
2018-03-30T09:45:15.370Z,48.80
2018-03-30T09:47:41.789Z,48.80
2018-03-30T09:50:08.378Z,48.50
2018-03-30T09:52:34.953Z,46.60
2018-03-30T09:55:02.565Z,46.60
2018-03-30T09:57:28.992Z,46.80
2018-03-30T09:59:55.447Z,47.10
2018-03-30T10:02:27.544Z,46.90
2018-03-30T10:04:59.958Z,47.40
2018-03-30T10:07:26.602Z,46.90
2018-03-30T10:09:53.069Z,45.60
2018-03-30T10:12:19.484Z,45.50
2018-03-30T10:14:46.789Z,43.30
2018-03-30T10:17:13.342Z,43.30
2018-03-30T10:19:39.892Z,43.40
2018-03-30T10:22:06.597Z,43.70
2018-03-30T10:24:33.860Z,42.60
2018-03-30T10:27:00.323Z,42.60
2018-03-30T10:29:26.780Z,42.90
2018-03-30T10:31:53.219Z,42.00
2018-03-30T10:34:19.798Z,41.90
2018-03-30T10:36:46.399Z,41.30
2018-03-30T10:39:12.888Z,41.30
2018-03-30T10:41:40.039Z,39.10
2018-03-30T10:44:06.502Z,39.00
2018-03-30T10:46:32.987Z,38.90
2018-03-30T10:48:59.386Z,37.50
2018-03-30T10:51:25.771Z,37.70
2018-03-30T10:53:52.969Z,36.90
2018-03-30T10:56:19.447Z,36.80
2018-03-30T10:58:46.622Z,35.20
2018-03-30T11:01:13.081Z,35.10
2018-03-30T11:03:39.549Z,33.40
2018-03-30T11:06:06.104Z,33.80
2018-03-30T11:08:33.284Z,33.30
2018-03-30T11:10:59.770Z,32.80
2018-03-30T11:13:27.313Z,32.50
2018-03-30T11:15:54.722Z,32.40
2018-03-30T11:18:21.232Z,32.40
2018-03-30T11:20:47.811Z,31.60
2018-03-30T11:23:14.357Z,31.10
2018-03-30T11:25:40.866Z,30.70
2018-03-30T11:28:08.040Z,31.40
2018-03-30T11:30:34.978Z,30.90
2018-03-30T11:33:01.437Z,30.70
2018-03-30T11:35:28.586Z,30.90
2018-03-30T11:37:55.809Z,30.90
2018-03-30T11:40:23.063Z,30.80
2018-03-30T11:42:59.479Z,30.80
2018-03-30T11:45:26.042Z,31.00
2018-03-30T11:47:52.527Z,31.40
2018-03-30T11:50:19.008Z,30.80
2018-03-30T11:52:45.538Z,31.80
2018-03-30T11:55:12.054Z,30.90
2018-03-30T11:57:38.745Z,31.10
2018-03-30T12:00:05.281Z,30.90
2018-03-30T12:02:31.801Z,30.90
2018-03-30T12:04:58.243Z,31.50
2018-03-30T12:07:24.721Z,31.10
2018-03-30T12:09:51.214Z,31.20
2018-03-30T12:12:18.373Z,31.10
2018-03-30T12:14:44.865Z,31.00
2018-03-30T12:17:11.439Z,30.00
2018-03-30T12:19:37.953Z,29.90
2018-03-30T12:22:04.412Z,30.00
2018-03-30T12:24:31.685Z,29.50
2018-03-30T12:26:58.187Z,29.50
2018-03-30T12:29:24.718Z,28.50
2018-03-30T12:31:51.163Z,28.90
2018-03-30T12:34:17.683Z,27.80
2018-03-30T12:36:44.124Z,28.20
2018-03-30T12:39:10.547Z,27.70
2018-03-30T12:41:37.009Z,27.30
2018-03-30T12:44:03.513Z,28.10
2018-03-30T12:46:29.994Z,28.10
2018-03-30T12:48:56.486Z,28.10
2018-03-30T12:51:23.739Z,27.60
2018-03-30T12:53:50.933Z,28.00
2018-03-30T12:56:17.440Z,27.90
2018-03-30T12:58:43.943Z,27.80
2018-03-30T13:01:10.376Z,27.70
2018-03-30T13:03:36.801Z,28.20
2018-03-30T13:06:03.991Z,27.90
2018-03-30T13:08:30.405Z,27.70
2018-03-30T13:10:57.660Z,28.00
2018-03-30T13:13:24.078Z,27.90
2018-03-30T13:15:50.595Z,28.40
2018-03-30T13:18:17.040Z,28.70
2018-03-30T13:20:44.401Z,28.20
2018-03-30T13:23:10.874Z,28.50
2018-03-30T13:25:38.252Z,29.70
2018-03-30T13:28:04.767Z,29.60
2018-03-30T13:30:31.191Z,30.00
2018-03-30T13:32:57.713Z,29.80
2018-03-30T13:35:24.158Z,30.10
2018-03-30T13:37:50.596Z,30.30
2018-03-30T13:40:17.056Z,30.80
2018-03-30T13:42:43.450Z,31.20
2018-03-30T13:45:10.035Z,32.20
2018-03-30T13:47:36.557Z,32.00
2018-03-30T13:50:03.136Z,32.00
2018-03-30T13:52:36.358Z,32.80
2018-03-30T13:55:04.636Z,33.30
2018-03-30T13:57:47.046Z,34.50
2018-03-30T14:00:22.535Z,34.00
2018-03-30T14:03:12.854Z,33.90
2018-03-30T14:05:59.143Z,34.40
2018-03-30T14:08:28.551Z,35.20
2018-03-30T14:11:26.991Z,35.70
2018-03-30T14:13:53.774Z,35.20
2018-03-30T14:16:36.197Z,36.20
2018-03-30T14:22:15.732Z,34.90
2018-03-30T14:24:43.121Z,35.30
2018-03-30T14:27:18.390Z,34.80
2018-03-30T14:29:49.382Z,35.20
2018-03-30T14:35:26.738Z,34.50
2018-03-30T14:37:55.640Z,34.10
2018-03-30T14:40:27.504Z,34.50
2018-03-30T14:43:03.671Z,34.80
2018-03-30T14:45:34.762Z,35.00
2018-03-30T14:48:17.172Z,35.00
2018-03-30T14:51:04.198Z,34.80
2018-03-30T14:53:45.276Z,34.10
2018-03-30T14:56:33.030Z,34.40
2018-03-30T14:59:19.655Z,33.80
2018-03-30T15:01:54.112Z,33.50
2018-03-30T15:13:50.557Z,33.40
2018-03-30T15:16:26.852Z,33.00
2018-03-30T15:18:58.018Z,32.40
2018-03-30T15:21:34.222Z,33.00
2018-03-30T15:24:07.743Z,34.10
2018-03-30T15:26:37.331Z,33.80
2018-03-30T15:29:07.792Z,33.20
2018-03-30T15:34:34.905Z,33.70
2018-03-30T15:37:18.189Z,33.80
2018-03-30T15:40:04.948Z,34.20
2018-03-30T15:42:34.252Z,34.30
2018-03-30T15:45:07.191Z,34.40
2018-03-30T15:47:33.883Z,34.30
2018-03-30T15:50:01.120Z,34.40
2018-03-30T15:52:36.883Z,34.40
2018-03-30T15:55:03.672Z,34.90
2018-03-30T15:57:30.377Z,34.80
2018-03-30T15:59:57.661Z,35.00
2018-03-30T16:02:24.091Z,35.60
2018-03-30T16:04:50.567Z,35.00
2018-03-30T16:07:17.124Z,36.00
2018-03-30T16:09:49.314Z,35.80
2018-03-30T16:12:16.507Z,35.90
2018-03-30T16:14:43.023Z,36.80
2018-03-30T16:17:10.507Z,37.00
2018-03-30T16:19:36.763Z,36.90
2018-03-30T16:22:02.907Z,36.90
2018-03-30T16:24:29.059Z,37.00
2018-03-30T16:26:55.245Z,37.10
2018-03-30T16:29:21.455Z,37.30
2018-03-30T16:31:47.732Z,37.60
2018-03-30T16:34:13.863Z,37.60
2018-03-30T16:36:40.106Z,37.70
2018-03-30T16:39:06.954Z,38.10
2018-03-30T16:41:33.904Z,38.20
2018-03-30T16:44:00.110Z,38.20
2018-03-30T16:46:26.333Z,38.00
2018-03-30T16:48:53.231Z,38.10
2018-03-30T16:51:19.376Z,38.10
2018-03-30T16:53:45.552Z,38.20
2018-03-30T16:56:11.694Z,38.40
2018-03-30T16:58:37.808Z,38.50
2018-03-30T17:01:03.923Z,38.40
2018-03-30T17:03:30.062Z,38.50
2018-03-30T17:05:56.208Z,38.60
2018-03-30T17:08:22.370Z,38.30
2018-03-30T17:10:48.483Z,38.50
2018-03-30T17:13:14.637Z,39.10
2018-03-30T17:15:40.804Z,39.60
2018-03-30T17:18:06.989Z,39.90
2018-03-30T17:20:33.837Z,44.80
2018-03-30T17:23:00.733Z,47.90
2018-03-30T17:25:26.957Z,47.80
2018-03-30T17:27:53.184Z,51.80
2018-03-30T17:30:19.361Z,56.80
2018-03-30T17:32:45.524Z,59.60
2018-03-30T17:35:11.662Z,65.60
2018-03-30T17:37:38.600Z,71.10
2018-03-30T17:40:04.750Z,70.20
2018-03-30T17:42:31.734Z,77.10
2018-03-30T17:44:57.899Z,77.10
2018-03-30T17:47:24.080Z,77.40
2018-03-30T17:49:50.270Z,81.00
2018-03-30T17:52:16.547Z,83.50
2018-03-30T17:54:42.806Z,86.00
2018-03-30T17:57:08.939Z,87.10
2018-03-30T17:59:35.166Z,88.30
2018-03-30T18:02:01.332Z,84.90
2018-03-30T18:04:27.498Z,85.00
2018-03-30T18:06:53.686Z,82.00
2018-03-30T18:09:20.999Z,82.50
2018-03-30T18:11:47.125Z,81.40
2018-03-30T18:14:13.283Z,84.90
2018-03-30T18:16:39.561Z,88.00
2018-03-30T18:19:05.894Z,89.30
2018-03-30T18:21:32.045Z,89.40
2018-03-30T18:23:58.165Z,84.40
2018-03-30T18:26:24.342Z,84.90
2018-03-30T18:28:50.663Z,88.60
2018-03-30T18:31:16.807Z,86.90
2018-03-30T18:33:42.983Z,86.20
2018-03-30T18:36:09.834Z,85.30
2018-03-30T18:38:36.018Z,85.30
2018-03-30T18:41:02.300Z,89.10
2018-03-30T18:43:28.442Z,86.30
2018-03-30T18:45:54.581Z,86.60
2018-03-30T18:48:20.783Z,85.30
2018-03-30T18:50:46.948Z,86.10
2018-03-30T18:53:13.145Z,87.90
2018-03-30T18:55:39.355Z,87.50
2018-03-30T18:58:05.553Z,89.30
2018-03-30T19:00:31.774Z,87.70
2018-03-30T19:02:58.726Z,84.10
2018-03-30T19:05:24.891Z,84.10
2018-03-30T19:07:51.176Z,87.00
2018-03-30T19:10:18.086Z,89.20
2018-03-30T19:12:44.294Z,89.20
2018-03-30T19:15:11.366Z,90.90
2018-03-30T19:17:37.631Z,91.90
2018-03-30T19:20:04.601Z,94.20
2018-03-30T19:22:30.740Z,94.20
2018-03-30T19:24:56.995Z,93.60
2018-03-30T19:27:23.158Z,92.30
2018-03-30T19:29:49.352Z,92.20
2018-03-30T19:32:15.573Z,95.80
2018-03-30T19:34:41.805Z,95.80
2018-03-30T19:37:08.180Z,96.50
2018-03-30T19:39:34.346Z,96.60
2018-03-30T19:42:00.556Z,96.00
2018-03-30T19:44:26.726Z,95.60
2018-03-30T19:46:52.981Z,95.60
2018-03-30T19:49:19.087Z,94.70
2018-03-30T19:51:45.980Z,95.70
2018-03-30T19:54:12.109Z,95.70
2018-03-30T19:56:38.333Z,94.60
2018-03-30T19:59:04.600Z,93.70
2018-03-30T20:01:31.551Z,93.60
2018-03-30T20:03:57.841Z,93.50
2018-03-30T20:06:24.076Z,93.90
2018-03-30T20:08:50.352Z,95.10
2018-03-30T20:11:16.487Z,95.40
2018-03-30T20:13:42.711Z,95.80
2018-03-30T20:16:08.846Z,95.20
2018-03-30T20:18:35.031Z,94.00
2018-03-30T20:21:01.288Z,94.30
2018-03-30T20:23:27.512Z,94.10
2018-03-30T20:25:53.800Z,94.50
2018-03-30T20:28:19.969Z,94.30
2018-03-30T20:30:46.102Z,92.20
2018-03-30T20:33:12.468Z,92.70
2018-03-30T20:35:38.701Z,93.00
2018-03-30T20:38:04.840Z,92.80
2018-03-30T20:40:31.081Z,93.50
2018-03-30T20:42:57.232Z,92.80
2018-03-30T20:45:23.440Z,93.20
2018-03-30T20:47:49.626Z,92.70
2018-03-30T20:50:15.767Z,92.80
2018-03-30T20:52:41.902Z,94.00
2018-03-30T20:55:08.929Z,93.90
2018-03-30T20:57:35.062Z,93.90
2018-03-30T21:00:02.024Z,93.90
2018-03-30T21:02:28.241Z,93.90
2018-03-30T21:04:54.446Z,93.50
2018-03-30T21:07:20.577Z,93.30
2018-03-30T21:09:46.804Z,93.40
2018-03-30T21:12:15.972Z,95.40
2018-03-30T21:14:42.129Z,95.40
2018-03-30T21:17:08.316Z,95.10
2018-03-30T21:19:34.664Z,95.20
2018-03-30T21:22:01.638Z,95.50
2018-03-30T21:24:28.543Z,95.20
2018-03-30T21:26:54.725Z,95.20
2018-03-30T21:29:20.922Z,94.80
2018-03-30T21:31:47.195Z,94.70
2018-03-30T21:34:13.328Z,95.10
2018-03-30T21:36:39.550Z,94.70
2018-03-30T21:39:05.683Z,93.80
2018-03-30T21:41:31.842Z,93.20
2018-03-30T21:43:58.004Z,92.20
2018-03-30T21:46:24.166Z,92.40
2018-03-30T21:48:50.278Z,92.20
2018-03-30T21:51:16.461Z,91.50
2018-03-30T21:53:42.632Z,91.30
2018-03-30T21:56:08.782Z,91.50
2018-03-30T21:58:34.950Z,91.20
2018-03-30T22:01:01.098Z,91.40
2018-03-30T22:03:27.286Z,91.80
2018-03-30T22:05:53.428Z,92.20
2018-03-30T22:08:19.646Z,92.60
2018-03-30T22:10:46.792Z,92.30
2018-03-30T22:13:13.711Z,94.30
2018-03-30T22:15:39.877Z,94.20
2018-03-30T22:18:06.000Z,93.60
2018-03-30T22:20:32.160Z,93.50
2018-03-30T22:22:58.302Z,92.30
2018-03-30T22:25:24.442Z,92.50
2018-03-30T22:27:50.597Z,93.50
2018-03-30T22:30:17.517Z,91.90
2018-03-30T22:32:43.737Z,91.90
2018-03-30T22:35:09.846Z,92.80
2018-03-30T22:37:36.034Z,92.00
2018-03-30T22:40:02.177Z,91.60
2018-03-30T22:42:28.309Z,91.50
2018-03-30T22:44:54.535Z,91.20
2018-03-30T22:47:20.713Z,90.60
2018-03-30T22:49:47.019Z,90.40
2018-03-30T22:52:13.106Z,90.50
2018-03-30T22:54:39.287Z,90.40
2018-03-30T22:57:06.169Z,90.00
2018-03-30T22:59:32.367Z,90.00
2018-03-30T23:01:58.530Z,88.60
2018-03-30T23:04:24.653Z,87.50
2018-03-30T23:06:50.788Z,88.50
2018-03-30T23:09:17.024Z,89.40
2018-03-30T23:11:43.197Z,88.80
2018-03-30T23:14:10.029Z,90.30
2018-03-30T23:16:36.182Z,90.30
2018-03-30T23:19:02.271Z,89.70
2018-03-30T23:21:28.398Z,89.40
2018-03-30T23:23:54.555Z,89.70
2018-03-30T23:26:20.689Z,88.40
2018-03-30T23:28:46.844Z,87.80
2018-03-30T23:31:13.898Z,90.10
2018-03-30T23:33:40.816Z,90.50
2018-03-30T23:36:07.044Z,90.50
2018-03-30T23:38:33.151Z,90.50
2018-03-30T23:40:59.928Z,87.90
2018-03-30T23:43:26.125Z,87.30
2018-03-30T23:45:52.212Z,86.10
2018-03-30T23:48:18.380Z,86.00
2018-03-30T23:50:44.510Z,85.30
2018-03-30T23:53:10.799Z,84.90
2018-03-30T23:55:37.076Z,85.80
2018-03-30T23:58:03.214Z,83.20
